sensor_id;sensor_type;location;lat;lon;timestamp;temperature;humidity
2539;DHT22;1280;49.760;9.664;2023-03-24T00:01:16;15.30;72.40
2539;DHT22;1280;49.760;9.664;2023-03-24T00:03:44;15.30;72.40
2539;DHT22;1280;49.760;9.664;2023-03-24T00:06:17;15.30;72.50
2539;DHT22;1280;49.760;9.664;2023-03-24T00:08:49;15.30;72.60
2539;DHT22;1280;49.760;9.664;2023-03-24T00:11:18;15.30;72.60
2539;DHT22;1280;49.760;9.664;2023-03-24T00:13:47;15.30;72.60
2539;DHT22;1280;49.760;9.664;2023-03-24T00:16:18;15.30;72.60
2539;DHT22;1280;49.760;9.664;2023-03-24T00:18:47;15.30;72.70
2539;DHT22;1280;49.760;9.664;2023-03-24T00:21:21;15.30;72.70
2539;DHT22;1280;49.760;9.664;2023-03-24T00:23:52;15.30;72.70
2539;DHT22;1280;49.760;9.664;2023-03-24T00:26:21;15.30;72.70
2539;DHT22;1280;49.760;9.664;2023-03-24T00:28:51;15.30;72.70
2539;DHT22;1280;49.760;9.664;2023-03-24T00:31:20;15.30;72.70
2539;DHT22;1280;49.760;9.664;2023-03-24T00:33:50;15.30;72.70
2539;DHT22;1280;49.760;9.664;2023-03-24T00:36:21;15.30;72.80
2539;DHT22;1280;49.760;9.664;2023-03-24T00:38:52;15.30;72.80
2539;DHT22;1280;49.760;9.664;2023-03-24T00:41:20;15.30;72.80
2539;DHT22;1280;49.760;9.664;2023-03-24T00:43:54;15.20;72.90
2539;DHT22;1280;49.760;9.664;2023-03-24T00:46:22;15.20;72.90
2539;DHT22;1280;49.760;9.664;2023-03-24T00:48:59;15.20;73.00
2539;DHT22;1280;49.760;9.664;2023-03-24T00:51:33;15.20;73.00
2539;DHT22;1280;49.760;9.664;2023-03-24T00:54:04;15.20;73.00
2539;DHT22;1280;49.760;9.664;2023-03-24T00:56:34;15.20;73.00
2539;DHT22;1280;49.760;9.664;2023-03-24T00:59:03;15.30;72.90
2539;DHT22;1280;49.760;9.664;2023-03-24T01:01:33;15.30;72.90
2539;DHT22;1280;49.760;9.664;2023-03-24T01:04:03;15.30;72.90
2539;DHT22;1280;49.760;9.664;2023-03-24T01:06:33;15.30;72.90
2539;DHT22;1280;49.760;9.664;2023-03-24T01:09:05;15.30;72.80
2539;DHT22;1280;49.760;9.664;2023-03-24T01:11:36;15.30;72.80
2539;DHT22;1280;49.760;9.664;2023-03-24T01:14:06;15.30;72.80
2539;DHT22;1280;49.760;9.664;2023-03-24T01:16:37;15.30;72.70
2539;DHT22;1280;49.760;9.664;2023-03-24T01:19:06;15.30;72.60
2539;DHT22;1280;49.760;9.664;2023-03-24T01:21:35;15.30;72.60
2539;DHT22;1280;49.760;9.664;2023-03-24T01:24:05;15.30;72.50
2539;DHT22;1280;49.760;9.664;2023-03-24T01:26:34;15.30;72.40
2539;DHT22;1280;49.760;9.664;2023-03-24T01:29:02;15.30;72.40
2539;DHT22;1280;49.760;9.664;2023-03-24T01:31:31;15.40;72.40
2539;DHT22;1280;49.760;9.664;2023-03-24T01:33:59;15.30;72.30
2539;DHT22;1280;49.760;9.664;2023-03-24T01:36:29;15.40;72.30
2539;DHT22;1280;49.760;9.664;2023-03-24T01:38:59;15.40;72.20
2539;DHT22;1280;49.760;9.664;2023-03-24T01:41:32;15.40;72.10
2539;DHT22;1280;49.760;9.664;2023-03-24T01:44:22;15.40;72.10
2539;DHT22;1280;49.760;9.664;2023-03-24T01:46:52;15.40;72.00
2539;DHT22;1280;49.760;9.664;2023-03-24T01:49:23;15.40;72.00
2539;DHT22;1280;49.760;9.664;2023-03-24T01:51:54;15.40;71.90
2539;DHT22;1280;49.760;9.664;2023-03-24T01:54:25;15.30;71.90
2539;DHT22;1280;49.760;9.664;2023-03-24T01:57:04;15.30;71.90
2539;DHT22;1280;49.760;9.664;2023-03-24T01:59:40;15.30;71.90
2539;DHT22;1280;49.760;9.664;2023-03-24T02:02:40;15.30;71.90
2539;DHT22;1280;49.760;9.664;2023-03-24T02:05:11;15.30;71.90
2539;DHT22;1280;49.760;9.664;2023-03-24T02:07:49;15.30;71.90
2539;DHT22;1280;49.760;9.664;2023-03-24T02:10:23;15.30;71.90
2539;DHT22;1280;49.760;9.664;2023-03-24T02:12:53;15.30;71.90
2539;DHT22;1280;49.760;9.664;2023-03-24T02:15:21;15.30;71.80
2539;DHT22;1280;49.760;9.664;2023-03-24T02:17:57;15.40;71.80
2539;DHT22;1280;49.760;9.664;2023-03-24T02:26:35;15.40;71.60
2539;DHT22;1280;49.760;9.664;2023-03-24T02:29:33;15.40;71.60
2539;DHT22;1280;49.760;9.664;2023-03-24T02:32:29;15.40;71.60
2539;DHT22;1280;49.760;9.664;2023-03-24T02:35:21;15.40;71.50
2539;DHT22;1280;49.760;9.664;2023-03-24T02:38:13;15.30;71.60
2539;DHT22;1280;49.760;9.664;2023-03-24T02:40:46;15.30;71.60
2539;DHT22;1280;49.760;9.664;2023-03-24T02:43:31;15.30;71.60
2539;DHT22;1280;49.760;9.664;2023-03-24T02:46:10;15.30;71.60
2539;DHT22;1280;49.760;9.664;2023-03-24T02:48:48;15.30;71.60
2539;DHT22;1280;49.760;9.664;2023-03-24T02:51:25;15.30;71.60
2539;DHT22;1280;49.760;9.664;2023-03-24T02:54:02;15.30;71.60
2539;DHT22;1280;49.760;9.664;2023-03-24T02:56:37;15.30;71.60
2539;DHT22;1280;49.760;9.664;2023-03-24T02:59:28;15.20;71.60
2539;DHT22;1280;49.760;9.664;2023-03-24T03:02:03;15.20;71.60
2539;DHT22;1280;49.760;9.664;2023-03-24T03:04:41;15.20;71.60
2539;DHT22;1280;49.760;9.664;2023-03-24T03:07:13;15.20;71.60
2539;DHT22;1280;49.760;9.664;2023-03-24T03:09:47;15.20;71.70
2539;DHT22;1280;49.760;9.664;2023-03-24T03:12:21;15.20;71.70
2539;DHT22;1280;49.760;9.664;2023-03-24T03:14:54;15.30;71.70
2539;DHT22;1280;49.760;9.664;2023-03-24T03:17:26;15.30;71.60
2539;DHT22;1280;49.760;9.664;2023-03-24T03:19:59;15.30;71.50
2539;DHT22;1280;49.760;9.664;2023-03-24T03:22:39;15.30;71.60
2539;DHT22;1280;49.760;9.664;2023-03-24T03:25:11;15.30;71.60
2539;DHT22;1280;49.760;9.664;2023-03-24T03:27:43;15.30;71.60
2539;DHT22;1280;49.760;9.664;2023-03-24T03:30:15;15.30;71.60
2539;DHT22;1280;49.760;9.664;2023-03-24T03:32:49;15.30;71.70
2539;DHT22;1280;49.760;9.664;2023-03-24T03:35:23;15.20;71.70
2539;DHT22;1280;49.760;9.664;2023-03-24T03:37:57;15.20;71.80
2539;DHT22;1280;49.760;9.664;2023-03-24T03:40:30;15.20;71.80
2539;DHT22;1280;49.760;9.664;2023-03-24T03:43:10;15.20;71.80
2539;DHT22;1280;49.760;9.664;2023-03-24T03:45:38;15.20;71.90
2539;DHT22;1280;49.760;9.664;2023-03-24T03:48:07;15.20;71.80
2539;DHT22;1280;49.760;9.664;2023-03-24T03:50:36;15.20;71.80
2539;DHT22;1280;49.760;9.664;2023-03-24T03:53:08;15.30;71.80
2539;DHT22;1280;49.760;9.664;2023-03-24T03:55:38;15.30;71.80
2539;DHT22;1280;49.760;9.664;2023-03-24T03:58:09;15.30;71.70
2539;DHT22;1280;49.760;9.664;2023-03-24T04:00:47;15.30;71.70
2539;DHT22;1280;49.760;9.664;2023-03-24T04:07:02;15.40;71.60
2539;DHT22;1280;49.760;9.664;2023-03-24T04:09:43;15.30;71.60
2539;DHT22;1280;49.760;9.664;2023-03-24T04:12:41;15.30;71.60
2539;DHT22;1280;49.760;9.664;2023-03-24T04:15:39;15.30;71.70
2539;DHT22;1280;49.760;9.664;2023-03-24T04:18:40;15.20;71.70
2539;DHT22;1280;49.760;9.664;2023-03-24T04:21:24;15.20;71.80
2539;DHT22;1280;49.760;9.664;2023-03-24T04:24:14;15.20;71.80
2539;DHT22;1280;49.760;9.664;2023-03-24T04:26:53;15.20;71.90
2539;DHT22;1280;49.760;9.664;2023-03-24T04:29:32;15.20;71.80
2539;DHT22;1280;49.760;9.664;2023-03-24T04:32:13;15.20;71.80
2539;DHT22;1280;49.760;9.664;2023-03-24T04:34:47;15.20;71.90
2539;DHT22;1280;49.760;9.664;2023-03-24T04:37:47;15.20;71.80
2539;DHT22;1280;49.760;9.664;2023-03-24T04:40:23;15.30;71.80
2539;DHT22;1280;49.760;9.664;2023-03-24T04:42:54;15.30;71.80
2539;DHT22;1280;49.760;9.664;2023-03-24T04:45:27;15.30;71.70
2539;DHT22;1280;49.760;9.664;2023-03-24T04:48:19;15.30;71.80
2539;DHT22;1280;49.760;9.664;2023-03-24T04:51:02;15.30;71.70
2539;DHT22;1280;49.760;9.664;2023-03-24T04:53:47;15.30;71.70
2539;DHT22;1280;49.760;9.664;2023-03-24T04:56:27;15.30;71.70
2539;DHT22;1280;49.760;9.664;2023-03-24T04:59:04;15.40;71.60
2539;DHT22;1280;49.760;9.664;2023-03-24T05:01:32;15.40;71.60
2539;DHT22;1280;49.760;9.664;2023-03-24T05:04:25;15.40;71.50
2539;DHT22;1280;49.760;9.664;2023-03-24T05:06:57;15.40;71.60
2539;DHT22;1280;49.760;9.664;2023-03-24T05:09:26;15.40;71.70
2539;DHT22;1280;49.760;9.664;2023-03-24T05:11:58;15.40;71.90
2539;DHT22;1280;49.760;9.664;2023-03-24T05:14:30;15.30;72.10
2539;DHT22;1280;49.760;9.664;2023-03-24T05:16:58;15.40;72.20
2539;DHT22;1280;49.760;9.664;2023-03-24T05:19:29;15.40;72.30
2539;DHT22;1280;49.760;9.664;2023-03-24T05:21:58;15.40;72.50
2539;DHT22;1280;49.760;9.664;2023-03-24T05:24:26;15.30;72.60
2539;DHT22;1280;49.760;9.664;2023-03-24T05:26:54;15.30;72.80
2539;DHT22;1280;49.760;9.664;2023-03-24T05:29:23;15.30;72.90
2539;DHT22;1280;49.760;9.664;2023-03-24T05:31:52;15.30;73.10
2539;DHT22;1280;49.760;9.664;2023-03-24T05:34:21;15.20;73.40
2539;DHT22;1280;49.760;9.664;2023-03-24T05:37:11;15.30;73.50
2539;DHT22;1280;49.760;9.664;2023-03-24T05:39:46;15.20;73.90
2539;DHT22;1280;49.760;9.664;2023-03-24T05:42:34;15.20;73.80
2539;DHT22;1280;49.760;9.664;2023-03-24T05:45:04;15.20;74.00
2539;DHT22;1280;49.760;9.664;2023-03-24T05:47:33;15.20;74.20
2539;DHT22;1280;49.760;9.664;2023-03-24T05:50:02;15.20;74.40
2539;DHT22;1280;49.760;9.664;2023-03-24T05:52:32;15.10;74.60
2539;DHT22;1280;49.760;9.664;2023-03-24T05:55:18;15.10;74.80
2539;DHT22;1280;49.760;9.664;2023-03-24T05:57:53;15.10;74.90
2539;DHT22;1280;49.760;9.664;2023-03-24T06:00:33;15.10;75.20
2539;DHT22;1280;49.760;9.664;2023-03-24T06:03:09;15.10;75.20
2539;DHT22;1280;49.760;9.664;2023-03-24T06:05:44;15.10;75.50
2539;DHT22;1280;49.760;9.664;2023-03-24T06:08:15;15.00;75.70
2539;DHT22;1280;49.760;9.664;2023-03-24T06:10:44;15.00;76.00
2539;DHT22;1280;49.760;9.664;2023-03-24T06:13:14;15.00;76.00
2539;DHT22;1280;49.760;9.664;2023-03-24T06:15:44;15.00;76.20
2539;DHT22;1280;49.760;9.664;2023-03-24T06:18:32;15.00;76.30
2539;DHT22;1280;49.760;9.664;2023-03-24T06:21:10;15.00;76.50
2539;DHT22;1280;49.760;9.664;2023-03-24T06:23:41;15.00;76.60
2539;DHT22;1280;49.760;9.664;2023-03-24T06:26:11;15.00;76.70
2539;DHT22;1280;49.760;9.664;2023-03-24T06:28:53;15.00;76.90
2539;DHT22;1280;49.760;9.664;2023-03-24T06:31:24;15.00;77.00
2539;DHT22;1280;49.760;9.664;2023-03-24T06:34:01;14.90;77.10
2539;DHT22;1280;49.760;9.664;2023-03-24T06:36:29;15.00;77.20
2539;DHT22;1280;49.760;9.664;2023-03-24T06:39:00;15.00;77.30
2539;DHT22;1280;49.760;9.664;2023-03-24T06:41:29;15.00;77.40
2539;DHT22;1280;49.760;9.664;2023-03-24T06:44:00;15.00;77.50
2539;DHT22;1280;49.760;9.664;2023-03-24T06:46:28;15.00;77.50
2539;DHT22;1280;49.760;9.664;2023-03-24T06:48:56;14.90;77.60
2539;DHT22;1280;49.760;9.664;2023-03-24T06:51:24;14.90;77.70
2539;DHT22;1280;49.760;9.664;2023-03-24T06:53:52;14.90;77.80
2539;DHT22;1280;49.760;9.664;2023-03-24T06:56:24;14.90;77.80
2539;DHT22;1280;49.760;9.664;2023-03-24T06:58:56;14.90;77.90
2539;DHT22;1280;49.760;9.664;2023-03-24T07:01:28;14.90;78.00
2539;DHT22;1280;49.760;9.664;2023-03-24T07:04:12;14.90;78.00
2539;DHT22;1280;49.760;9.664;2023-03-24T07:06:57;14.90;78.10
2539;DHT22;1280;49.760;9.664;2023-03-24T07:09:52;14.90;78.20
2539;DHT22;1280;49.760;9.664;2023-03-24T07:12:22;14.90;78.40
2539;DHT22;1280;49.760;9.664;2023-03-24T07:14:50;14.90;78.50
2539;DHT22;1280;49.760;9.664;2023-03-24T07:17:20;14.90;78.50
2539;DHT22;1280;49.760;9.664;2023-03-24T07:20:14;14.90;78.70
2539;DHT22;1280;49.760;9.664;2023-03-24T07:22:54;14.90;78.70
2539;DHT22;1280;49.760;9.664;2023-03-24T07:25:24;14.90;78.70
2539;DHT22;1280;49.760;9.664;2023-03-24T07:28:13;14.90;78.80
2539;DHT22;1280;49.760;9.664;2023-03-24T07:30:41;14.90;79.00
2539;DHT22;1280;49.760;9.664;2023-03-24T07:33:10;14.90;79.10
2539;DHT22;1280;49.760;9.664;2023-03-24T07:35:42;14.80;79.20
2539;DHT22;1280;49.760;9.664;2023-03-24T07:38:11;14.90;79.20
2539;DHT22;1280;49.760;9.664;2023-03-24T07:40:39;14.90;79.00
2539;DHT22;1280;49.760;9.664;2023-03-24T07:43:07;14.80;79.30
2539;DHT22;1280;49.760;9.664;2023-03-24T07:45:55;14.90;79.30
2539;DHT22;1280;49.760;9.664;2023-03-24T07:48:28;14.80;79.40
2539;DHT22;1280;49.760;9.664;2023-03-24T07:50:56;14.80;79.50
2539;DHT22;1280;49.760;9.664;2023-03-24T07:53:45;14.80;79.50
2539;DHT22;1280;49.760;9.664;2023-03-24T07:56:21;14.90;79.50
2539;DHT22;1280;49.760;9.664;2023-03-24T07:58:54;14.90;79.60
2539;DHT22;1280;49.760;9.664;2023-03-24T08:01:56;14.90;79.60
2539;DHT22;1280;49.760;9.664;2023-03-24T08:04:37;14.90;79.50
2539;DHT22;1280;49.760;9.664;2023-03-24T08:07:25;14.90;79.40
2539;DHT22;1280;49.760;9.664;2023-03-24T08:09:53;14.90;79.50
2539;DHT22;1280;49.760;9.664;2023-03-24T08:12:22;14.90;79.60
2539;DHT22;1280;49.760;9.664;2023-03-24T08:14:50;14.90;79.70
2539;DHT22;1280;49.760;9.664;2023-03-24T08:17:20;14.90;79.80
2539;DHT22;1280;49.760;9.664;2023-03-24T08:19:48;14.90;79.90
2539;DHT22;1280;49.760;9.664;2023-03-24T08:22:26;15.00;80.00
2539;DHT22;1280;49.760;9.664;2023-03-24T08:24:55;15.10;79.90
2539;DHT22;1280;49.760;9.664;2023-03-24T08:27:23;15.10;79.90
2539;DHT22;1280;49.760;9.664;2023-03-24T08:29:50;15.10;80.00
2539;DHT22;1280;49.760;9.664;2023-03-24T08:32:21;15.20;80.10
2539;DHT22;1280;49.760;9.664;2023-03-24T08:34:50;15.20;80.00
2539;DHT22;1280;49.760;9.664;2023-03-24T08:37:20;15.20;80.00
2539;DHT22;1280;49.760;9.664;2023-03-24T08:39:50;15.20;80.00
2539;DHT22;1280;49.760;9.664;2023-03-24T08:42:19;15.20;80.00
2539;DHT22;1280;49.760;9.664;2023-03-24T08:44:47;15.20;79.90
2539;DHT22;1280;49.760;9.664;2023-03-24T08:47:15;15.20;79.90
2539;DHT22;1280;49.760;9.664;2023-03-24T08:49:44;15.20;79.90
2539;DHT22;1280;49.760;9.664;2023-03-24T08:52:14;15.20;79.90
2539;DHT22;1280;49.760;9.664;2023-03-24T08:54:43;15.20;80.10
2539;DHT22;1280;49.760;9.664;2023-03-24T08:57:11;15.20;80.10
2539;DHT22;1280;49.760;9.664;2023-03-24T08:59:39;15.10;80.10
2539;DHT22;1280;49.760;9.664;2023-03-24T09:02:08;15.20;80.10
2539;DHT22;1280;49.760;9.664;2023-03-24T09:04:37;15.20;80.00
2539;DHT22;1280;49.760;9.664;2023-03-24T09:07:07;15.20;80.10
2539;DHT22;1280;49.760;9.664;2023-03-24T09:09:36;15.10;80.20
2539;DHT22;1280;49.760;9.664;2023-03-24T09:12:05;15.20;80.20
2539;DHT22;1280;49.760;9.664;2023-03-24T09:14:35;15.10;80.30
2539;DHT22;1280;49.760;9.664;2023-03-24T09:17:03;15.10;80.30
2539;DHT22;1280;49.760;9.664;2023-03-24T09:19:31;15.10;80.40
2539;DHT22;1280;49.760;9.664;2023-03-24T09:21:59;15.10;80.50
2539;DHT22;1280;49.760;9.664;2023-03-24T09:24:42;15.10;80.60
2539;DHT22;1280;49.760;9.664;2023-03-24T09:27:10;15.10;80.90
2539;DHT22;1280;49.760;9.664;2023-03-24T09:29:39;15.20;80.90
2539;DHT22;1280;49.760;9.664;2023-03-24T09:32:07;15.20;80.80
2539;DHT22;1280;49.760;9.664;2023-03-24T09:34:35;15.30;80.80
2539;DHT22;1280;49.760;9.664;2023-03-24T09:37:04;15.20;80.90
2539;DHT22;1280;49.760;9.664;2023-03-24T09:39:34;15.30;80.90
2539;DHT22;1280;49.760;9.664;2023-03-24T09:42:05;15.30;81.00
2539;DHT22;1280;49.760;9.664;2023-03-24T09:44:36;15.30;81.00
2539;DHT22;1280;49.760;9.664;2023-03-24T09:47:13;15.30;80.90
2539;DHT22;1280;49.760;9.664;2023-03-24T09:49:47;15.30;80.90
2539;DHT22;1280;49.760;9.664;2023-03-24T09:52:20;15.30;81.10
2539;DHT22;1280;49.760;9.664;2023-03-24T09:54:53;15.30;81.10
2539;DHT22;1280;49.760;9.664;2023-03-24T09:57:24;15.30;81.00
2539;DHT22;1280;49.760;9.664;2023-03-24T09:59:54;15.30;81.10
2539;DHT22;1280;49.760;9.664;2023-03-24T10:02:22;15.30;81.00
2539;DHT22;1280;49.760;9.664;2023-03-24T10:04:50;15.30;81.00
2539;DHT22;1280;49.760;9.664;2023-03-24T10:07:22;15.40;80.90
2539;DHT22;1280;49.760;9.664;2023-03-24T10:09:57;15.40;81.10
2539;DHT22;1280;49.760;9.664;2023-03-24T10:12:35;15.60;81.20
2539;DHT22;1280;49.760;9.664;2023-03-24T10:15:18;15.60;81.10
2539;DHT22;1280;49.760;9.664;2023-03-24T10:18:15;15.70;81.10
2539;DHT22;1280;49.760;9.664;2023-03-24T10:20:51;15.90;80.90
2539;DHT22;1280;49.760;9.664;2023-03-24T10:23:29;15.90;80.90
2539;DHT22;1280;49.760;9.664;2023-03-24T10:26:04;16.00;80.70
2539;DHT22;1280;49.760;9.664;2023-03-24T10:28:42;16.00;80.60
2539;DHT22;1280;49.760;9.664;2023-03-24T10:31:14;16.10;80.60
2539;DHT22;1280;49.760;9.664;2023-03-24T10:33:44;16.10;80.50
2539;DHT22;1280;49.760;9.664;2023-03-24T10:36:15;16.10;80.40
2539;DHT22;1280;49.760;9.664;2023-03-24T10:38:44;16.20;80.20
2539;DHT22;1280;49.760;9.664;2023-03-24T10:41:17;16.10;80.20
2539;DHT22;1280;49.760;9.664;2023-03-24T10:43:50;16.10;80.10
2539;DHT22;1280;49.760;9.664;2023-03-24T10:46:20;16.10;80.10
2539;DHT22;1280;49.760;9.664;2023-03-24T10:48:50;16.00;80.20
2539;DHT22;1280;49.760;9.664;2023-03-24T10:51:20;16.00;80.40
2539;DHT22;1280;49.760;9.664;2023-03-24T10:54:09;16.10;80.20
2539;DHT22;1280;49.760;9.664;2023-03-24T10:56:39;16.10;80.10
2539;DHT22;1280;49.760;9.664;2023-03-24T10:59:22;16.10;80.30
2539;DHT22;1280;49.760;9.664;2023-03-24T11:02:01;16.10;80.30
2539;DHT22;1280;49.760;9.664;2023-03-24T11:04:32;16.10;80.30
2539;DHT22;1280;49.760;9.664;2023-03-24T11:07:04;16.10;80.30
2539;DHT22;1280;49.760;9.664;2023-03-24T11:09:40;16.20;80.40
2539;DHT22;1280;49.760;9.664;2023-03-24T11:12:20;16.20;80.50
2539;DHT22;1280;49.760;9.664;2023-03-24T11:14:51;16.20;80.30
2539;DHT22;1280;49.760;9.664;2023-03-24T11:17:44;16.30;80.10
2539;DHT22;1280;49.760;9.664;2023-03-24T11:20:16;16.20;80.40
2539;DHT22;1280;49.760;9.664;2023-03-24T11:23:03;16.20;80.50
2539;DHT22;1280;49.760;9.664;2023-03-24T11:25:35;16.20;80.60
2539;DHT22;1280;49.760;9.664;2023-03-24T11:28:06;16.30;80.40
2539;DHT22;1280;49.760;9.664;2023-03-24T11:30:46;16.30;80.30
2539;DHT22;1280;49.760;9.664;2023-03-24T11:33:19;16.30;80.30
2539;DHT22;1280;49.760;9.664;2023-03-24T11:36:05;16.20;80.50
2539;DHT22;1280;49.760;9.664;2023-03-24T11:38:37;16.30;80.30
2539;DHT22;1280;49.760;9.664;2023-03-24T11:41:18;16.20;80.60
2539;DHT22;1280;49.760;9.664;2023-03-24T11:43:48;16.20;80.80
2539;DHT22;1280;49.760;9.664;2023-03-24T11:46:18;16.20;80.80
2539;DHT22;1280;49.760;9.664;2023-03-24T11:48:50;16.30;80.70
2539;DHT22;1280;49.760;9.664;2023-03-24T11:51:26;16.30;80.50
2539;DHT22;1280;49.760;9.664;2023-03-24T11:53:55;16.40;80.30
2539;DHT22;1280;49.760;9.664;2023-03-24T11:56:33;16.30;80.30
2539;DHT22;1280;49.760;9.664;2023-03-24T11:59:11;16.20;80.50
2539;DHT22;1280;49.760;9.664;2023-03-24T12:01:48;16.20;80.60
2539;DHT22;1280;49.760;9.664;2023-03-24T12:04:25;16.10;79.90
2539;DHT22;1280;49.760;9.664;2023-03-24T12:07:26;15.90;79.60
2539;DHT22;1280;49.760;9.664;2023-03-24T12:10:17;15.80;79.30
2539;DHT22;1280;49.760;9.664;2023-03-24T12:12:52;15.60;79.20
2539;DHT22;1280;49.760;9.664;2023-03-24T12:15:34;15.40;79.40
2539;DHT22;1280;49.760;9.664;2023-03-24T12:18:25;15.30;79.40
2539;DHT22;1280;49.760;9.664;2023-03-24T12:21:05;15.30;79.20
2539;DHT22;1280;49.760;9.664;2023-03-24T12:23:38;15.20;79.10
2539;DHT22;1280;49.760;9.664;2023-03-24T12:26:20;15.20;79.20
2539;DHT22;1280;49.760;9.664;2023-03-24T12:32:04;15.10;79.20
2539;DHT22;1280;49.760;9.664;2023-03-24T12:38:14;15.10;79.10
2539;DHT22;1280;49.760;9.664;2023-03-24T12:41:28;15.10;79.20
2539;DHT22;1280;49.760;9.664;2023-03-24T12:44:27;15.20;79.20
2539;DHT22;1280;49.760;9.664;2023-03-24T12:47:16;15.20;79.20
2539;DHT22;1280;49.760;9.664;2023-03-24T12:49:58;15.20;79.10
2539;DHT22;1280;49.760;9.664;2023-03-24T12:53:09;15.20;79.00
2539;DHT22;1280;49.760;9.664;2023-03-24T13:00:18;15.20;79.00
2539;DHT22;1280;49.760;9.664;2023-03-24T13:02:51;15.30;79.00
2539;DHT22;1280;49.760;9.664;2023-03-24T13:05:26;15.20;79.00
2539;DHT22;1280;49.760;9.664;2023-03-24T13:07:59;15.30;78.90
2539;DHT22;1280;49.760;9.664;2023-03-24T13:10:29;15.30;78.80
2539;DHT22;1280;49.760;9.664;2023-03-24T13:13:03;15.30;78.80
2539;DHT22;1280;49.760;9.664;2023-03-24T13:15:38;15.30;78.80
2539;DHT22;1280;49.760;9.664;2023-03-24T13:18:20;15.30;78.90
2539;DHT22;1280;49.760;9.664;2023-03-24T13:20:54;15.30;78.80
2539;DHT22;1280;49.760;9.664;2023-03-24T13:23:33;15.30;78.90
2539;DHT22;1280;49.760;9.664;2023-03-24T13:26:10;15.40;78.90
2539;DHT22;1280;49.760;9.664;2023-03-24T13:28:48;15.40;78.80
2539;DHT22;1280;49.760;9.664;2023-03-24T13:31:20;15.40;78.80
2539;DHT22;1280;49.760;9.664;2023-03-24T13:33:49;15.40;78.90
2539;DHT22;1280;49.760;9.664;2023-03-24T13:36:33;15.40;78.90
2539;DHT22;1280;49.760;9.664;2023-03-24T13:39:11;15.50;79.00
2539;DHT22;1280;49.760;9.664;2023-03-24T13:41:46;15.50;79.10
2539;DHT22;1280;49.760;9.664;2023-03-24T13:44:18;15.60;79.10
2539;DHT22;1280;49.760;9.664;2023-03-24T13:47:13;15.60;79.10
2539;DHT22;1280;49.760;9.664;2023-03-24T13:49:45;15.70;79.00
2539;DHT22;1280;49.760;9.664;2023-03-24T13:52:27;15.80;79.00
2539;DHT22;1280;49.760;9.664;2023-03-24T13:55:00;15.80;78.90
2539;DHT22;1280;49.760;9.664;2023-03-24T13:57:29;15.90;79.00
2539;DHT22;1280;49.760;9.664;2023-03-24T14:00:00;15.90;78.90
2539;DHT22;1280;49.760;9.664;2023-03-24T14:02:44;15.90;78.90
2539;DHT22;1280;49.760;9.664;2023-03-24T14:05:54;15.90;78.90
2539;DHT22;1280;49.760;9.664;2023-03-24T14:08:54;15.90;78.70
2539;DHT22;1280;49.760;9.664;2023-03-24T14:11:43;16.00;78.50
2539;DHT22;1280;49.760;9.664;2023-03-24T14:14:21;15.90;78.40
2539;DHT22;1280;49.760;9.664;2023-03-24T14:16:51;15.90;78.50
2539;DHT22;1280;49.760;9.664;2023-03-24T14:19:24;15.90;78.60
2539;DHT22;1280;49.760;9.664;2023-03-24T14:21:58;16.00;78.60
2539;DHT22;1280;49.760;9.664;2023-03-24T14:24:31;16.10;78.40
2539;DHT22;1280;49.760;9.664;2023-03-24T14:26:59;16.10;78.30
2539;DHT22;1280;49.760;9.664;2023-03-24T14:29:40;16.10;78.20
2539;DHT22;1280;49.760;9.664;2023-03-24T14:32:16;16.10;77.90
2539;DHT22;1280;49.760;9.664;2023-03-24T14:34:53;16.00;77.80
2539;DHT22;1280;49.760;9.664;2023-03-24T14:37:24;16.00;77.60
2539;DHT22;1280;49.760;9.664;2023-03-24T14:39:53;16.00;77.70
2539;DHT22;1280;49.760;9.664;2023-03-24T14:42:52;16.00;77.40
2539;DHT22;1280;49.760;9.664;2023-03-24T14:45:39;16.00;77.30
2539;DHT22;1280;49.760;9.664;2023-03-24T14:48:36;15.90;77.30
2539;DHT22;1280;49.760;9.664;2023-03-24T14:51:31;15.90;77.30
2539;DHT22;1280;49.760;9.664;2023-03-24T14:54:05;15.90;77.20
2539;DHT22;1280;49.760;9.664;2023-03-24T14:56:36;15.80;77.30
2539;DHT22;1280;49.760;9.664;2023-03-24T14:59:10;15.80;77.30
2539;DHT22;1280;49.760;9.664;2023-03-24T15:01:45;15.90;77.30
2539;DHT22;1280;49.760;9.664;2023-03-24T15:04:18;15.90;77.20
2539;DHT22;1280;49.760;9.664;2023-03-24T15:06:47;15.90;77.00
2539;DHT22;1280;49.760;9.664;2023-03-24T15:09:16;16.00;77.00
2539;DHT22;1280;49.760;9.664;2023-03-24T15:11:46;16.00;76.90
2539;DHT22;1280;49.760;9.664;2023-03-24T15:14:20;16.10;76.70
2539;DHT22;1280;49.760;9.664;2023-03-24T15:16:56;16.10;76.60
2539;DHT22;1280;49.760;9.664;2023-03-24T15:19:26;16.10;76.70
2539;DHT22;1280;49.760;9.664;2023-03-24T15:22:01;16.10;76.70
2539;DHT22;1280;49.760;9.664;2023-03-24T15:24:32;16.20;76.60
2539;DHT22;1280;49.760;9.664;2023-03-24T15:27:23;16.20;76.70
2539;DHT22;1280;49.760;9.664;2023-03-24T15:29:54;16.30;76.40
2539;DHT22;1280;49.760;9.664;2023-03-24T15:32:25;16.30;76.30
2539;DHT22;1280;49.760;9.664;2023-03-24T15:34:58;16.30;76.20
2539;DHT22;1280;49.760;9.664;2023-03-24T15:37:32;16.30;76.10
2539;DHT22;1280;49.760;9.664;2023-03-24T15:40:05;16.20;75.70
2539;DHT22;1280;49.760;9.664;2023-03-24T15:42:43;16.10;75.60
2539;DHT22;1280;49.760;9.664;2023-03-24T15:45:19;16.00;75.60
2539;DHT22;1280;49.760;9.664;2023-03-24T15:47:50;16.00;75.50
2539;DHT22;1280;49.760;9.664;2023-03-24T15:50:29;15.90;75.60
2539;DHT22;1280;49.760;9.664;2023-03-24T15:53:01;15.90;75.50
2539;DHT22;1280;49.760;9.664;2023-03-24T15:55:31;15.80;75.80
2539;DHT22;1280;49.760;9.664;2023-03-24T15:58:13;15.70;75.80
2539;DHT22;1280;49.760;9.664;2023-03-24T16:00:45;15.70;75.90
2539;DHT22;1280;49.760;9.664;2023-03-24T16:03:21;15.60;75.90
2539;DHT22;1280;49.760;9.664;2023-03-24T16:05:54;15.60;75.80
2539;DHT22;1280;49.760;9.664;2023-03-24T16:08:28;15.50;75.90
2539;DHT22;1280;49.760;9.664;2023-03-24T16:11:03;15.50;76.00
2539;DHT22;1280;49.760;9.664;2023-03-24T16:13:33;15.50;76.10
2539;DHT22;1280;49.760;9.664;2023-03-24T16:16:15;15.50;76.10
2539;DHT22;1280;49.760;9.664;2023-03-24T16:18:48;15.50;76.20
2539;DHT22;1280;49.760;9.664;2023-03-24T16:21:18;15.50;76.30
2539;DHT22;1280;49.760;9.664;2023-03-24T16:23:49;15.50;76.30
2539;DHT22;1280;49.760;9.664;2023-03-24T16:26:18;15.50;76.30
2539;DHT22;1280;49.760;9.664;2023-03-24T16:28:47;15.50;76.30
2539;DHT22;1280;49.760;9.664;2023-03-24T16:31:19;15.40;76.30
2539;DHT22;1280;49.760;9.664;2023-03-24T16:33:50;15.40;76.40
2539;DHT22;1280;49.760;9.664;2023-03-24T16:36:18;15.40;76.40
2539;DHT22;1280;49.760;9.664;2023-03-24T16:38:51;15.40;76.50
2539;DHT22;1280;49.760;9.664;2023-03-24T16:41:19;15.40;76.50
2539;DHT22;1280;49.760;9.664;2023-03-24T16:43:47;15.40;76.50
2539;DHT22;1280;49.760;9.664;2023-03-24T16:46:17;15.50;76.40
2539;DHT22;1280;49.760;9.664;2023-03-24T16:48:47;15.40;76.50
2539;DHT22;1280;49.760;9.664;2023-03-24T16:51:16;15.40;76.50
2539;DHT22;1280;49.760;9.664;2023-03-24T16:53:45;15.40;76.40
2539;DHT22;1280;49.760;9.664;2023-03-24T16:56:16;15.40;76.40
2539;DHT22;1280;49.760;9.664;2023-03-24T16:58:45;15.40;76.40
2539;DHT22;1280;49.760;9.664;2023-03-24T17:01:15;15.40;76.40
2539;DHT22;1280;49.760;9.664;2023-03-24T17:03:53;15.40;76.40
2539;DHT22;1280;49.760;9.664;2023-03-24T17:06:22;15.40;76.30
2539;DHT22;1280;49.760;9.664;2023-03-24T17:08:50;15.30;76.30
2539;DHT22;1280;49.760;9.664;2023-03-24T17:11:25;15.30;76.30
2539;DHT22;1280;49.760;9.664;2023-03-24T17:13:54;15.30;76.40